sensor_id;sensor_type;location;lat;lon;timestamp;temperature;humidity
6863;DHT22;3470;48.738;9.616;2023-09-19T12:45:35;28.90;66.10
6863;DHT22;3470;48.738;9.616;2023-09-19T12:48:22;26.50;70.40
6863;DHT22;3470;48.738;9.616;2023-09-19T12:51:08;27.00;71.70
6863;DHT22;3470;48.738;9.616;2023-09-19T12:53:45;28.20;68.90
6863;DHT22;3470;48.738;9.616;2023-09-19T12:56:13;29.00;66.90
6863;DHT22;3470;48.738;9.616;2023-09-19T12:58:55;29.80;65.70
6863;DHT22;3470;48.738;9.616;2023-09-19T13:01:24;28.20;67.50
6863;DHT22;3470;48.738;9.616;2023-09-19T13:04:14;28.00;67.50
6863;DHT22;3470;48.738;9.616;2023-09-19T13:06:43;28.00;68.10
6863;DHT22;3470;48.738;9.616;2023-09-19T13:09:10;28.50;66.20
6863;DHT22;3470;48.738;9.616;2023-09-19T13:11:37;29.20;67.70
6863;DHT22;3470;48.738;9.616;2023-09-19T13:14:17;29.70;64.30
6863;DHT22;3470;48.738;9.616;2023-09-19T13:19:54;28.00;66.20
6863;DHT22;3470;48.738;9.616;2023-09-19T13:22:44;28.70;67.00
6863;DHT22;3470;48.738;9.616;2023-09-19T13:25:15;28.30;66.00
6863;DHT22;3470;48.738;9.616;2023-09-19T13:27:44;28.40;67.10
6863;DHT22;3470;48.738;9.616;2023-09-19T13:30:11;28.90;66.00
6863;DHT22;3470;48.738;9.616;2023-09-19T13:32:37;29.10;65.80
6863;DHT22;3470;48.738;9.616;2023-09-19T13:35:05;29.30;66.00
6863;DHT22;3470;48.738;9.616;2023-09-19T13:37:32;28.70;64.80
6863;DHT22;3470;48.738;9.616;2023-09-19T13:39:58;28.50;65.50
6863;DHT22;3470;48.738;9.616;2023-09-19T13:42:25;28.50;66.70
6863;DHT22;3470;48.738;9.616;2023-09-19T13:44:50;29.10;66.80
6863;DHT22;3470;48.738;9.616;2023-09-19T13:47:17;29.80;63.70
6863;DHT22;3470;48.738;9.616;2023-09-19T13:49:50;29.20;64.60
6863;DHT22;3470;48.738;9.616;2023-09-19T13:52:21;28.60;65.50
6863;DHT22;3470;48.738;9.616;2023-09-19T13:54:49;27.90;67.10
6863;DHT22;3470;48.738;9.616;2023-09-19T13:57:15;27.90;68.90
6863;DHT22;3470;48.738;9.616;2023-09-19T13:59:42;27.50;68.60
6863;DHT22;3470;48.738;9.616;2023-09-19T14:02:07;27.50;69.10
6863;DHT22;3470;48.738;9.616;2023-09-19T14:04:33;28.50;67.60
6863;DHT22;3470;48.738;9.616;2023-09-19T14:07:00;28.20;67.80
6863;DHT22;3470;48.738;9.616;2023-09-19T14:09:26;27.10;68.50
6863;DHT22;3470;48.738;9.616;2023-09-19T14:11:52;27.90;68.20
6863;DHT22;3470;48.738;9.616;2023-09-19T14:14:19;28.50;66.70
6863;DHT22;3470;48.738;9.616;2023-09-19T14:16:46;29.00;65.50
6863;DHT22;3470;48.738;9.616;2023-09-19T14:19:11;28.70;66.60
6863;DHT22;3470;48.738;9.616;2023-09-19T14:21:37;29.50;65.50
6863;DHT22;3470;48.738;9.616;2023-09-19T14:24:04;28.60;65.00
6863;DHT22;3470;48.738;9.616;2023-09-19T14:26:40;28.40;67.70
6863;DHT22;3470;48.738;9.616;2023-09-19T14:29:06;28.00;66.80
6863;DHT22;3470;48.738;9.616;2023-09-19T14:31:37;25.90;71.10
6863;DHT22;3470;48.738;9.616;2023-09-19T14:34:04;26.20;71.20
6863;DHT22;3470;48.738;9.616;2023-09-19T14:36:30;26.50;70.50
6863;DHT22;3470;48.738;9.616;2023-09-19T14:38:56;26.70;69.60
6863;DHT22;3470;48.738;9.616;2023-09-19T14:41:25;26.40;70.80
6863;DHT22;3470;48.738;9.616;2023-09-19T14:43:54;25.50;73.30
6863;DHT22;3470;48.738;9.616;2023-09-19T14:46:23;24.50;74.20
6863;DHT22;3470;48.738;9.616;2023-09-19T14:48:51;24.10;76.10
6863;DHT22;3470;48.738;9.616;2023-09-19T14:51:17;24.40;75.40
6863;DHT22;3470;48.738;9.616;2023-09-19T14:53:44;24.50;75.20
6863;DHT22;3470;48.738;9.616;2023-09-19T14:56:10;24.10;75.10
6863;DHT22;3470;48.738;9.616;2023-09-19T14:58:37;23.90;75.10
6863;DHT22;3470;48.738;9.616;2023-09-19T15:03:36;24.00;73.30
6863;DHT22;3470;48.738;9.616;2023-09-19T15:06:03;23.50;73.40
6863;DHT22;3470;48.738;9.616;2023-09-19T15:08:35;23.80;74.60
6863;DHT22;3470;48.738;9.616;2023-09-19T15:11:09;24.30;71.80
6863;DHT22;3470;48.738;9.616;2023-09-19T15:13:36;25.00;72.70
6863;DHT22;3470;48.738;9.616;2023-09-19T15:16:03;24.60;70.30
6863;DHT22;3470;48.738;9.616;2023-09-19T15:18:30;24.60;70.50
6863;DHT22;3470;48.738;9.616;2023-09-19T15:21:00;24.20;72.60
6863;DHT22;3470;48.738;9.616;2023-09-19T15:23:26;24.30;72.40
6863;DHT22;3470;48.738;9.616;2023-09-19T15:25:52;24.60;72.10
6863;DHT22;3470;48.738;9.616;2023-09-19T15:28:18;24.90;72.40
6863;DHT22;3470;48.738;9.616;2023-09-19T15:30:46;24.60;72.60
6863;DHT22;3470;48.738;9.616;2023-09-19T15:33:12;24.20;73.50
6863;DHT22;3470;48.738;9.616;2023-09-19T15:35:37;24.00;72.20
6863;DHT22;3470;48.738;9.616;2023-09-19T15:38:04;23.80;73.30
6863;DHT22;3470;48.738;9.616;2023-09-19T15:40:29;23.80;72.60
6863;DHT22;3470;48.738;9.616;2023-09-19T15:42:55;23.20;73.80
6863;DHT22;3470;48.738;9.616;2023-09-19T15:45:24;23.50;74.00
6863;DHT22;3470;48.738;9.616;2023-09-19T15:47:50;23.60;73.20
6863;DHT22;3470;48.738;9.616;2023-09-19T15:50:16;23.20;72.90
6863;DHT22;3470;48.738;9.616;2023-09-19T15:52:42;22.90;74.30
6863;DHT22;3470;48.738;9.616;2023-09-19T15:55:08;23.10;75.40
6863;DHT22;3470;48.738;9.616;2023-09-19T15:57:36;22.90;73.80
6863;DHT22;3470;48.738;9.616;2023-09-19T16:00:03;22.60;74.30
6863;DHT22;3470;48.738;9.616;2023-09-19T16:02:38;23.00;74.90
6863;DHT22;3470;48.738;9.616;2023-09-19T16:05:03;23.00;74.30
6863;DHT22;3470;48.738;9.616;2023-09-19T16:07:31;22.80;73.20
6863;DHT22;3470;48.738;9.616;2023-09-19T16:09:57;22.60;74.20
6863;DHT22;3470;48.738;9.616;2023-09-19T16:12:24;22.50;75.10
6863;DHT22;3470;48.738;9.616;2023-09-19T16:14:50;22.20;76.00
6863;DHT22;3470;48.738;9.616;2023-09-19T16:17:15;22.20;76.50
6863;DHT22;3470;48.738;9.616;2023-09-19T16:19:41;22.20;76.40
6863;DHT22;3470;48.738;9.616;2023-09-19T16:22:09;22.10;76.60
6863;DHT22;3470;48.738;9.616;2023-09-19T16:24:35;22.00;77.40
6863;DHT22;3470;48.738;9.616;2023-09-19T16:27:00;21.90;78.20
6863;DHT22;3470;48.738;9.616;2023-09-19T16:29:26;21.80;78.70
6863;DHT22;3470;48.738;9.616;2023-09-19T16:31:52;21.80;79.10
6863;DHT22;3470;48.738;9.616;2023-09-19T16:34:18;21.80;79.00
6863;DHT22;3470;48.738;9.616;2023-09-19T16:36:43;21.90;79.50
6863;DHT22;3470;48.738;9.616;2023-09-19T16:39:09;21.90;79.20
6863;DHT22;3470;48.738;9.616;2023-09-19T16:41:36;21.60;79.30
6863;DHT22;3470;48.738;9.616;2023-09-19T16:44:02;21.40;79.90
6863;DHT22;3470;48.738;9.616;2023-09-19T16:46:32;21.10;81.40
6863;DHT22;3470;48.738;9.616;2023-09-19T16:48:58;21.00;82.10
6863;DHT22;3470;48.738;9.616;2023-09-19T16:51:24;20.80;82.90
6863;DHT22;3470;48.738;9.616;2023-09-19T16:53:50;20.50;83.50
6863;DHT22;3470;48.738;9.616;2023-09-19T16:56:17;20.20;84.30
6863;DHT22;3470;48.738;9.616;2023-09-19T16:58:45;20.00;85.30
6863;DHT22;3470;48.738;9.616;2023-09-19T17:01:13;19.80;85.70
6863;DHT22;3470;48.738;9.616;2023-09-19T17:03:42;19.70;86.20
6863;DHT22;3470;48.738;9.616;2023-09-19T17:06:09;19.60;86.00
6863;DHT22;3470;48.738;9.616;2023-09-19T17:08:37;19.50;86.30
6863;DHT22;3470;48.738;9.616;2023-09-19T17:11:05;19.40;86.30
6863;DHT22;3470;48.738;9.616;2023-09-19T17:13:34;19.30;86.50
6863;DHT22;3470;48.738;9.616;2023-09-19T17:16:06;19.20;87.10
6863;DHT22;3470;48.738;9.616;2023-09-19T17:18:35;19.10;87.90
6863;DHT22;3470;48.738;9.616;2023-09-19T17:21:03;19.00;88.30
6863;DHT22;3470;48.738;9.616;2023-09-19T17:23:30;18.90;88.20
6863;DHT22;3470;48.738;9.616;2023-09-19T17:26:00;18.80;88.90
6863;DHT22;3470;48.738;9.616;2023-09-19T17:28:26;18.70;89.40
6863;DHT22;3470;48.738;9.616;2023-09-19T17:30:52;18.70;89.40
6863;DHT22;3470;48.738;9.616;2023-09-19T17:33:19;18.60;89.80
6863;DHT22;3470;48.738;9.616;2023-09-19T17:35:44;18.50;90.00
6863;DHT22;3470;48.738;9.616;2023-09-19T17:38:10;18.40;90.00
6863;DHT22;3470;48.738;9.616;2023-09-19T17:40:42;18.30;90.10
6863;DHT22;3470;48.738;9.616;2023-09-19T17:43:08;18.30;90.20
6863;DHT22;3470;48.738;9.616;2023-09-19T17:45:36;18.20;90.40
6863;DHT22;3470;48.738;9.616;2023-09-19T17:48:02;18.10;90.60
6863;DHT22;3470;48.738;9.616;2023-09-19T17:50:27;18.10;90.60
6863;DHT22;3470;48.738;9.616;2023-09-19T17:52:53;18.00;91.00
6863;DHT22;3470;48.738;9.616;2023-09-19T17:55:18;18.00;90.70
6863;DHT22;3470;48.738;9.616;2023-09-19T17:57:44;18.10;90.70
6863;DHT22;3470;48.738;9.616;2023-09-19T18:00:13;18.10;90.70
6863;DHT22;3470;48.738;9.616;2023-09-19T18:02:40;18.10;90.70
6863;DHT22;3470;48.738;9.616;2023-09-19T18:05:06;18.00;90.90
6863;DHT22;3470;48.738;9.616;2023-09-19T18:07:32;18.00;91.00
6863;DHT22;3470;48.738;9.616;2023-09-19T18:09:58;18.00;91.00
6863;DHT22;3470;48.738;9.616;2023-09-19T18:12:28;17.90;91.30
6863;DHT22;3470;48.738;9.616;2023-09-19T18:14:54;17.70;91.60
6863;DHT22;3470;48.738;9.616;2023-09-19T18:17:20;17.60;91.80
6863;DHT22;3470;48.738;9.616;2023-09-19T18:19:47;17.50;92.00
6863;DHT22;3470;48.738;9.616;2023-09-19T18:22:14;17.30;92.30
6863;DHT22;3470;48.738;9.616;2023-09-19T18:24:39;17.20;92.60
6863;DHT22;3470;48.738;9.616;2023-09-19T18:27:06;17.10;93.00
6863;DHT22;3470;48.738;9.616;2023-09-19T18:29:34;17.00;93.40
6863;DHT22;3470;48.738;9.616;2023-09-19T18:31:59;16.80;93.60
6863;DHT22;3470;48.738;9.616;2023-09-19T18:34:25;16.80;93.80
6863;DHT22;3470;48.738;9.616;2023-09-19T18:36:51;16.70;93.90
6863;DHT22;3470;48.738;9.616;2023-09-19T18:39:18;16.70;94.00
6863;DHT22;3470;48.738;9.616;2023-09-19T18:41:50;16.60;94.20
6863;DHT22;3470;48.738;9.616;2023-09-19T18:44:15;16.60;94.40
6863;DHT22;3470;48.738;9.616;2023-09-19T18:46:42;16.50;94.40
6863;DHT22;3470;48.738;9.616;2023-09-19T18:49:09;16.40;94.70
6863;DHT22;3470;48.738;9.616;2023-09-19T18:51:34;16.40;95.10
6863;DHT22;3470;48.738;9.616;2023-09-19T18:54:00;16.30;94.90
6863;DHT22;3470;48.738;9.616;2023-09-19T18:56:26;16.30;95.20
6863;DHT22;3470;48.738;9.616;2023-09-19T18:58:52;16.30;95.00
6863;DHT22;3470;48.738;9.616;2023-09-19T19:01:18;16.40;95.10
6863;DHT22;3470;48.738;9.616;2023-09-19T19:03:45;16.30;95.20
6863;DHT22;3470;48.738;9.616;2023-09-19T19:06:12;16.20;95.30
6863;DHT22;3470;48.738;9.616;2023-09-19T19:08:42;16.10;95.40
6863;DHT22;3470;48.738;9.616;2023-09-19T19:11:09;16.00;95.90
6863;DHT22;3470;48.738;9.616;2023-09-19T19:13:37;15.90;96.40
6863;DHT22;3470;48.738;9.616;2023-09-19T19:16:03;15.80;96.10
6863;DHT22;3470;48.738;9.616;2023-09-19T19:18:29;15.90;95.90
6863;DHT22;3470;48.738;9.616;2023-09-19T19:21:00;16.00;95.80
6863;DHT22;3470;48.738;9.616;2023-09-19T19:23:26;16.10;95.80
6863;DHT22;3470;48.738;9.616;2023-09-19T19:25:53;16.00;96.00
6863;DHT22;3470;48.738;9.616;2023-09-19T19:28:19;15.90;96.50
6863;DHT22;3470;48.738;9.616;2023-09-19T19:30:45;15.60;97.20
6863;DHT22;3470;48.738;9.616;2023-09-19T19:33:15;15.40;98.00
6863;DHT22;3470;48.738;9.616;2023-09-19T19:35:40;15.20;98.90
6863;DHT22;3470;48.738;9.616;2023-09-19T19:38:09;15.00;99.20
6863;DHT22;3470;48.738;9.616;2023-09-19T19:40:36;14.90;98.80
6863;DHT22;3470;48.738;9.616;2023-09-19T19:43:04;14.80;98.80
6863;DHT22;3470;48.738;9.616;2023-09-19T19:45:30;14.80;98.80
6863;DHT22;3470;48.738;9.616;2023-09-19T19:47:59;14.80;99.10
6863;DHT22;3470;48.738;9.616;2023-09-19T19:50:24;14.90;99.10
6863;DHT22;3470;48.738;9.616;2023-09-19T19:52:53;14.90;99.30
6863;DHT22;3470;48.738;9.616;2023-09-19T19:55:19;14.80;99.40
6863;DHT22;3470;48.738;9.616;2023-09-19T19:57:55;14.70;99.90
6863;DHT22;3470;48.738;9.616;2023-09-19T20:00:21;14.60;99.90
6863;DHT22;3470;48.738;9.616;2023-09-19T20:02:48;14.60;99.90
6863;DHT22;3470;48.738;9.616;2023-09-19T20:05:18;14.50;99.90
6863;DHT22;3470;48.738;9.616;2023-09-19T20:07:44;14.50;99.90
6863;DHT22;3470;48.738;9.616;2023-09-19T20:10:11;14.50;99.90
6863;DHT22;3470;48.738;9.616;2023-09-19T20:12:41;14.60;99.90
6863;DHT22;3470;48.738;9.616;2023-09-19T20:15:07;14.70;99.90
6863;DHT22;3470;48.738;9.616;2023-09-19T20:17:36;14.80;99.40
6863;DHT22;3470;48.738;9.616;2023-09-19T20:20:02;14.90;98.80
6863;DHT22;3470;48.738;9.616;2023-09-19T20:22:28;15.10;98.30
6863;DHT22;3470;48.738;9.616;2023-09-19T20:24:54;15.00;99.20
6863;DHT22;3470;48.738;9.616;2023-09-19T20:27:19;14.90;99.10
6863;DHT22;3470;48.738;9.616;2023-09-19T20:29:45;14.90;98.70
6863;DHT22;3470;48.738;9.616;2023-09-19T20:32:11;14.90;98.40
6863;DHT22;3470;48.738;9.616;2023-09-19T20:34:37;14.90;98.10
6863;DHT22;3470;48.738;9.616;2023-09-19T20:37:03;15.00;97.80
6863;DHT22;3470;48.738;9.616;2023-09-19T20:39:30;14.90;98.00
6863;DHT22;3470;48.738;9.616;2023-09-19T20:41:56;14.80;98.30
6863;DHT22;3470;48.738;9.616;2023-09-19T20:44:21;14.80;98.40
6863;DHT22;3470;48.738;9.616;2023-09-19T20:46:51;14.90;98.20
6863;DHT22;3470;48.738;9.616;2023-09-19T20:49:19;15.00;97.80
6863;DHT22;3470;48.738;9.616;2023-09-19T20:51:45;15.00;97.90
6863;DHT22;3470;48.738;9.616;2023-09-19T20:54:10;14.90;98.20
6863;DHT22;3470;48.738;9.616;2023-09-19T20:56:38;14.60;98.60
6863;DHT22;3470;48.738;9.616;2023-09-19T20:59:04;14.40;99.20
6863;DHT22;3470;48.738;9.616;2023-09-19T21:01:30;14.20;99.90
6863;DHT22;3470;48.738;9.616;2023-09-19T21:03:57;14.00;99.90
6863;DHT22;3470;48.738;9.616;2023-09-19T21:06:24;13.80;99.90
6863;DHT22;3470;48.738;9.616;2023-09-19T21:08:50;13.60;99.90
6863;DHT22;3470;48.738;9.616;2023-09-19T21:11:17;13.50;99.90
6863;DHT22;3470;48.738;9.616;2023-09-19T21:13:44;13.30;99.90
6863;DHT22;3470;48.738;9.616;2023-09-19T21:16:11;13.20;99.90
6863;DHT22;3470;48.738;9.616;2023-09-19T21:18:37;13.00;99.90
6863;DHT22;3470;48.738;9.616;2023-09-19T21:21:04;12.90;99.90
6863;DHT22;3470;48.738;9.616;2023-09-19T21:23:33;12.80;99.90
6863;DHT22;3470;48.738;9.616;2023-09-19T21:25:59;12.90;99.90
6863;DHT22;3470;48.738;9.616;2023-09-19T21:28:26;12.90;99.90
6863;DHT22;3470;48.738;9.616;2023-09-19T21:31:05;13.00;99.90
6863;DHT22;3470;48.738;9.616;2023-09-19T21:33:39;13.00;99.90
6863;DHT22;3470;48.738;9.616;2023-09-19T21:36:06;13.00;99.90
6863;DHT22;3470;48.738;9.616;2023-09-19T21:38:39;12.90;99.90
6863;DHT22;3470;48.738;9.616;2023-09-19T21:41:15;12.80;99.90
6863;DHT22;3470;48.738;9.616;2023-09-19T21:43:42;12.80;99.90
6863;DHT22;3470;48.738;9.616;2023-09-19T21:46:08;12.80;99.90
6863;DHT22;3470;48.738;9.616;2023-09-19T21:48:34;12.80;99.90
6863;DHT22;3470;48.738;9.616;2023-09-19T21:51:00;12.90;99.90
6863;DHT22;3470;48.738;9.616;2023-09-19T21:53:26;12.90;99.90
6863;DHT22;3470;48.738;9.616;2023-09-19T21:55:58;13.00;99.90
6863;DHT22;3470;48.738;9.616;2023-09-19T21:58:27;13.00;99.90
6863;DHT22;3470;48.738;9.616;2023-09-19T22:00:53;13.00;99.90
6863;DHT22;3470;48.738;9.616;2023-09-19T22:03:20;13.00;99.90
6863;DHT22;3470;48.738;9.616;2023-09-19T22:05:46;13.00;99.90
6863;DHT22;3470;48.738;9.616;2023-09-19T22:08:12;12.90;99.90
6863;DHT22;3470;48.738;9.616;2023-09-19T22:10:48;12.80;99.90
6863;DHT22;3470;48.738;9.616;2023-09-19T22:13:15;12.80;99.90
6863;DHT22;3470;48.738;9.616;2023-09-19T22:15:46;12.60;99.90
6863;DHT22;3470;48.738;9.616;2023-09-19T22:18:12;12.50;99.90
6863;DHT22;3470;48.738;9.616;2023-09-19T22:20:38;12.50;99.90
6863;DHT22;3470;48.738;9.616;2023-09-19T22:23:18;12.50;99.90
6863;DHT22;3470;48.738;9.616;2023-09-19T22:26:00;12.50;99.90
6863;DHT22;3470;48.738;9.616;2023-09-19T22:28:32;12.40;99.90
6863;DHT22;3470;48.738;9.616;2023-09-19T22:31:02;12.30;99.90
6863;DHT22;3470;48.738;9.616;2023-09-19T22:33:32;12.20;99.90
6863;DHT22;3470;48.738;9.616;2023-09-19T22:36:03;12.10;99.90
6863;DHT22;3470;48.738;9.616;2023-09-19T22:38:33;12.00;99.90
6863;DHT22;3470;48.738;9.616;2023-09-19T22:41:03;11.90;99.90
6863;DHT22;3470;48.738;9.616;2023-09-19T22:43:35;11.90;99.90
6863;DHT22;3470;48.738;9.616;2023-09-19T22:46:02;11.80;99.90
6863;DHT22;3470;48.738;9.616;2023-09-19T22:48:37;11.80;99.90
6863;DHT22;3470;48.738;9.616;2023-09-19T22:51:03;11.80;99.90
6863;DHT22;3470;48.738;9.616;2023-09-19T22:53:34;11.70;99.90
6863;DHT22;3470;48.738;9.616;2023-09-19T22:56:11;11.80;99.90
6863;DHT22;3470;48.738;9.616;2023-09-19T22:58:41;11.70;99.90
6863;DHT22;3470;48.738;9.616;2023-09-19T23:01:11;11.70;99.90
6863;DHT22;3470;48.738;9.616;2023-09-19T23:03:51;11.70;99.90
6863;DHT22;3470;48.738;9.616;2023-09-19T23:06:29;11.60;99.90
6863;DHT22;3470;48.738;9.616;2023-09-19T23:08:55;11.50;99.90
6863;DHT22;3470;48.738;9.616;2023-09-19T23:11:21;11.40;99.90
6863;DHT22;3470;48.738;9.616;2023-09-19T23:13:55;11.40;99.90
6863;DHT22;3470;48.738;9.616;2023-09-19T23:16:26;11.30;99.90
6863;DHT22;3470;48.738;9.616;2023-09-19T23:18:59;11.20;99.90
6863;DHT22;3470;48.738;9.616;2023-09-19T23:21:30;11.20;99.90
6863;DHT22;3470;48.738;9.616;2023-09-19T23:23:56;11.20;99.90
6863;DHT22;3470;48.738;9.616;2023-09-19T23:26:24;11.20;99.90
6863;DHT22;3470;48.738;9.616;2023-09-19T23:28:51;11.20;99.90
6863;DHT22;3470;48.738;9.616;2023-09-19T23:31:17;11.20;99.90
6863;DHT22;3470;48.738;9.616;2023-09-19T23:33:45;11.20;99.90
6863;DHT22;3470;48.738;9.616;2023-09-19T23:36:11;11.20;99.90
6863;DHT22;3470;48.738;9.616;2023-09-19T23:38:36;11.20;99.90
6863;DHT22;3470;48.738;9.616;2023-09-19T23:41:06;11.20;99.90
6863;DHT22;3470;48.738;9.616;2023-09-19T23:43:41;11.20;99.90
6863;DHT22;3470;48.738;9.616;2023-09-19T23:46:06;11.30;99.90
6863;DHT22;3470;48.738;9.616;2023-09-19T23:48:35;11.50;99.90
6863;DHT22;3470;48.738;9.616;2023-09-19T23:51:01;11.60;99.90
6863;DHT22;3470;48.738;9.616;2023-09-19T23:53:31;11.50;99.90
6863;DHT22;3470;48.738;9.616;2023-09-19T23:56:01;11.60;99.90
6863;DHT22;3470;48.738;9.616;2023-09-19T23:58:27;11.60;99.90
